createdAt,value
2023-02-24T00:01:54.319Z,12.73
2023-02-24T00:03:58.308Z,11.77
2023-02-24T00:05:59.850Z,11.55
2023-02-24T00:08:01.540Z,13.23
2023-02-24T00:10:03.670Z,12.40
2023-02-24T00:12:09.997Z,11.98
2023-02-24T00:14:15.916Z,12.65
2023-02-24T00:16:18.003Z,12.93
2023-02-24T00:18:19.662Z,11.75
2023-02-24T00:20:21.276Z,11.90
2023-02-24T00:22:22.966Z,10.35
2023-02-24T00:24:25.246Z,10.38
2023-02-24T00:26:29.644Z,10.82
2023-02-24T00:28:31.430Z,11.27
2023-02-24T00:30:33.248Z,10.38
2023-02-24T00:32:36.304Z,9.95
2023-02-24T00:34:38.661Z,10.63
2023-02-24T00:36:40.237Z,10.55
2023-02-24T00:38:45.073Z,9.57
2023-02-24T00:40:46.623Z,8.68
2023-02-24T00:42:48.499Z,10.35
2023-02-24T00:44:53.863Z,9.50
2023-02-24T00:46:55.391Z,9.95
2023-02-24T00:48:56.857Z,10.20
2023-02-24T00:51:00.875Z,9.90
2023-02-24T00:53:02.362Z,9.50
2023-02-24T00:55:13.824Z,11.43
2023-02-24T00:57:18.210Z,8.90
2023-02-24T00:59:20.615Z,8.02
2023-02-24T01:01:24.853Z,10.25
2023-02-24T01:03:27.664Z,8.95
2023-02-24T01:05:29.568Z,8.63
2023-02-24T01:07:31.126Z,8.75
2023-02-24T01:09:33.335Z,8.45
2023-02-24T01:11:54.647Z,9.68
2023-02-24T01:13:56.297Z,8.57
2023-02-24T01:16:02.268Z,9.30
2023-02-24T01:18:03.852Z,9.15
2023-02-24T01:20:18.180Z,8.57
2023-02-24T01:22:21.001Z,9.05
2023-02-24T01:24:23.800Z,9.38
2023-02-24T01:26:26.532Z,9.85
2023-02-24T01:30:31.246Z,9.73
2023-02-24T01:32:33.416Z,8.05
2023-02-24T01:34:35.412Z,8.98
2023-02-24T01:36:38.629Z,8.75
2023-02-24T01:38:42.636Z,9.02
2023-02-24T01:40:44.197Z,8.27
2023-02-24T01:42:47.541Z,8.07
2023-02-24T01:44:51.790Z,8.27
2023-02-24T01:46:53.908Z,8.50
2023-02-24T01:49:03.208Z,8.25
2023-02-24T01:51:04.918Z,8.25
2023-02-24T01:53:07.620Z,8.43
2023-02-24T01:57:20.381Z,8.07
2023-02-24T01:59:24.746Z,7.18
2023-02-24T02:01:26.940Z,7.25
2023-02-24T02:03:36.353Z,7.07
2023-02-24T02:05:40.666Z,7.35
2023-02-24T02:07:43.415Z,7.28
2023-02-24T02:09:47.076Z,8.05
2023-02-24T02:11:49.845Z,7.80
2023-02-24T02:13:53.174Z,8.32
2023-02-24T02:16:05.013Z,8.27
2023-02-24T02:18:29.142Z,7.78
2023-02-24T02:21:02.972Z,6.82
2023-02-24T02:24:04.239Z,7.57
2023-02-24T02:26:18.672Z,7.38
2023-02-24T02:29:02.227Z,7.65
2023-02-24T02:31:29.205Z,6.85
2023-02-24T02:34:09.772Z,7.18
2023-02-24T02:36:22.437Z,7.25
2023-02-24T02:38:31.324Z,7.60
2023-02-24T02:40:48.502Z,7.53
2023-02-24T02:43:06.925Z,7.78
2023-02-24T02:45:19.840Z,7.50
2023-02-24T02:47:34.916Z,7.35
2023-02-24T02:49:40.309Z,7.32
2023-02-24T02:51:56.772Z,7.25
2023-02-24T02:54:17.764Z,7.85
2023-02-24T02:56:30.956Z,6.40
2023-02-24T02:58:38.169Z,7.88
2023-02-24T03:00:49.978Z,7.18
2023-02-24T03:02:57.819Z,8.07
2023-02-24T03:05:02.196Z,7.70
2023-02-24T03:07:05.936Z,7.05
2023-02-24T03:09:15.906Z,7.30
2023-02-24T03:11:20.278Z,8.30
2023-02-24T03:13:25.905Z,7.22
2023-02-24T03:15:30.948Z,6.97
2023-02-24T03:17:37.133Z,7.20
2023-02-24T03:19:41.145Z,7.07
2023-02-24T03:21:45.704Z,8.07
2023-02-24T03:23:52.776Z,7.25
2023-02-24T03:28:16.335Z,7.45
2023-02-24T03:30:26.663Z,6.95
2023-02-24T03:32:33.339Z,7.60
2023-02-24T03:34:59.260Z,5.97
2023-02-24T03:37:03.484Z,7.47
2023-02-24T03:39:12.221Z,7.35
2023-02-24T03:41:22.394Z,7.78
2023-02-24T03:43:29.638Z,8.35
2023-02-24T03:45:37.857Z,7.13
2023-02-24T03:47:40.841Z,7.22
2023-02-24T03:49:46.116Z,7.15
2023-02-24T03:52:09.292Z,5.97
2023-02-24T03:54:31.064Z,6.47
2023-02-24T03:57:18.989Z,6.90
2023-02-24T03:59:42.844Z,6.57
2023-02-24T04:02:05.283Z,6.93
2023-02-24T04:04:37.545Z,6.35
2023-02-24T04:06:58.001Z,5.85
2023-02-24T04:09:13.425Z,6.05
2023-02-24T04:11:37.353Z,6.57
2023-02-24T04:13:44.770Z,6.00
2023-02-24T04:16:02.014Z,6.13
2023-02-24T04:18:11.968Z,6.28
2023-02-24T04:20:18.808Z,7.18
2023-02-24T04:22:27.327Z,6.70
2023-02-24T04:24:31.914Z,6.82
2023-02-24T04:26:36.616Z,6.50
2023-02-24T04:28:41.092Z,6.88
2023-02-24T04:30:48.337Z,7.45
2023-02-24T04:32:50.072Z,5.75
2023-02-24T04:34:52.965Z,6.15
2023-02-24T04:36:55.005Z,6.20
2023-02-24T04:38:56.588Z,5.88
2023-02-24T04:40:58.428Z,6.78
2023-02-24T04:42:59.906Z,7.30
2023-02-24T04:45:01.672Z,6.47
2023-02-24T04:47:03.763Z,6.15
2023-02-24T04:49:05.473Z,6.22
2023-02-24T04:51:07.043Z,6.40
2023-02-24T04:53:16.552Z,7.93
2023-02-24T04:55:21.380Z,6.82
2023-02-24T04:57:22.994Z,7.40
2023-02-24T04:59:25.257Z,7.10
2023-02-24T05:01:26.782Z,6.13
2023-02-24T05:03:29.737Z,7.63
2023-02-24T05:05:33.699Z,7.05
2023-02-24T05:07:35.389Z,6.80
2023-02-24T05:09:36.941Z,6.85
2023-02-24T05:11:38.637Z,6.40
2023-02-24T05:13:40.421Z,6.93
2023-02-24T05:15:44.625Z,6.50
2023-02-24T05:17:46.171Z,6.68
2023-02-24T05:20:06.406Z,5.53
2023-02-24T05:22:09.799Z,5.38
2023-02-24T05:24:11.591Z,6.10
2023-02-24T05:26:19.414Z,5.65
2023-02-24T05:28:25.369Z,5.25
2023-02-24T05:30:27.267Z,6.20
2023-02-24T05:32:29.416Z,6.05
2023-02-24T05:34:33.023Z,6.53
2023-02-24T05:36:40.419Z,6.25
2023-02-24T05:38:43.869Z,5.65
2023-02-24T05:40:49.659Z,5.90
2023-02-24T05:42:51.852Z,6.05
2023-02-24T05:44:53.948Z,6.53
2023-02-24T05:47:00.022Z,5.82
2023-02-24T05:49:08.582Z,6.65
2023-02-24T05:51:12.312Z,6.07
2023-02-24T05:53:13.987Z,5.78
2023-02-24T05:55:15.791Z,5.68
2023-02-24T05:57:24.642Z,6.28
2023-02-24T05:59:32.423Z,6.57
2023-02-24T06:01:36.605Z,6.38
2023-02-24T06:03:38.455Z,7.00
2023-02-24T06:05:42.549Z,5.78
2023-02-24T06:07:47.136Z,6.85
2023-02-24T06:09:53.393Z,5.95
2023-02-24T06:11:54.890Z,6.88
2023-02-24T06:13:57.806Z,6.13
2023-02-24T06:15:59.380Z,5.72
2023-02-24T06:18:01.550Z,6.18
2023-02-24T06:20:13.838Z,6.70
2023-02-24T06:22:26.157Z,6.10
2023-02-24T06:24:29.900Z,6.32
2023-02-24T06:26:36.638Z,6.72
2023-02-24T06:28:40.880Z,6.18
2023-02-24T06:30:43.041Z,7.40
2023-02-24T06:32:44.936Z,6.90
2023-02-24T06:34:46.667Z,7.45
2023-02-24T06:36:48.993Z,7.22
2023-02-24T06:38:52.479Z,6.78
2023-02-24T06:40:57.839Z,6.53
2023-02-24T06:42:59.782Z,7.45
2023-02-24T06:45:01.616Z,7.50
2023-02-24T06:47:03.298Z,7.63
2023-02-24T06:49:04.796Z,6.65
2023-02-24T06:51:13.442Z,8.07
2023-02-24T06:53:16.891Z,7.03
2023-02-24T06:55:27.664Z,6.60
2023-02-24T06:57:32.653Z,6.88
2023-02-24T06:59:34.255Z,6.90
2023-02-24T07:01:44.879Z,7.38
2023-02-24T07:04:02.734Z,6.88
2023-02-24T07:06:32.182Z,6.78
2023-02-24T07:08:34.154Z,7.07
2023-02-24T07:10:35.834Z,6.30
2023-02-24T07:12:37.770Z,7.47
2023-02-24T07:14:40.313Z,6.70
2023-02-24T07:16:45.832Z,6.40
2023-02-24T07:18:50.423Z,6.50
2023-02-24T07:20:52.350Z,6.43
2023-02-24T07:22:53.854Z,6.78
2023-02-24T07:25:01.248Z,7.25
2023-02-24T07:27:06.417Z,6.38
2023-02-24T07:29:11.354Z,6.65
2023-02-24T07:31:16.992Z,6.97
2023-02-24T07:33:19.367Z,6.63
2023-02-24T07:35:21.956Z,7.60
2023-02-24T07:37:24.312Z,6.60
2023-02-24T07:39:26.069Z,6.75
2023-02-24T07:41:29.926Z,6.55
2023-02-24T07:43:34.346Z,7.03
2023-02-24T07:45:35.935Z,6.15
2023-02-24T07:47:37.521Z,6.07
2023-02-24T07:49:41.282Z,7.03
2023-02-24T07:51:43.424Z,6.00
2023-02-24T07:53:51.529Z,6.95
2023-02-24T07:55:54.218Z,6.65
2023-02-24T07:57:57.087Z,7.15
2023-02-24T07:59:59.866Z,6.30
2023-02-24T08:04:08.528Z,5.80
2023-02-24T08:06:15.528Z,7.13
2023-02-24T08:08:20.882Z,5.70
2023-02-24T08:10:25.626Z,7.72
2023-02-24T08:12:29.216Z,6.13
2023-02-24T08:14:34.825Z,7.07
2023-02-24T08:16:39.823Z,6.82
2023-02-24T08:18:48.767Z,7.63
2023-02-24T08:22:56.087Z,6.80
2023-02-24T08:25:00.831Z,7.53
2023-02-24T08:27:05.753Z,6.25
2023-02-24T08:29:07.385Z,7.55
2023-02-24T08:31:09.281Z,7.07
2023-02-24T08:33:17.263Z,7.18
2023-02-24T08:35:20.183Z,7.22
2023-02-24T08:37:22.139Z,8.48
2023-02-24T08:39:24.616Z,8.27
2023-02-24T08:41:44.712Z,8.35
2023-02-24T08:43:48.941Z,7.18
2023-02-24T08:46:03.414Z,10.10
2023-02-24T08:48:18.074Z,8.13
2023-02-24T08:50:21.724Z,9.38
2023-02-24T08:52:23.521Z,7.70
2023-02-24T08:54:27.069Z,7.38
2023-02-24T08:56:34.283Z,8.48
2023-02-24T08:58:40.940Z,8.15
2023-02-24T09:00:53.398Z,7.00
2023-02-24T09:02:56.061Z,7.38
2023-02-24T09:05:00.852Z,7.47
2023-02-24T09:07:11.533Z,7.15
2023-02-24T09:09:19.021Z,7.97
2023-02-24T09:11:22.816Z,7.63
2023-02-24T09:13:32.670Z,9.23
2023-02-24T09:15:41.163Z,8.35
2023-02-24T09:17:44.595Z,6.47
2023-02-24T09:19:51.345Z,9.10
2023-02-24T09:21:53.287Z,8.50
2023-02-24T09:23:55.880Z,7.13
2023-02-24T09:25:58.314Z,6.78
2023-02-24T09:28:17.752Z,7.32
2023-02-24T09:30:35.648Z,7.85
2023-02-24T09:32:37.332Z,8.90
2023-02-24T09:34:44.238Z,7.93
2023-02-24T09:37:01.334Z,7.80
2023-02-24T09:39:03.112Z,9.48
2023-02-24T09:41:31.403Z,7.43
2023-02-24T09:43:44.176Z,7.65
2023-02-24T09:46:14.346Z,7.68
2023-02-24T09:48:26.709Z,7.57
2023-02-24T09:51:02.582Z,7.57
2023-02-24T09:53:17.087Z,6.90
2023-02-24T09:55:46.016Z,8.38
2023-02-24T09:58:09.116Z,7.93
2023-02-24T10:00:33.350Z,8.55
2023-02-24T10:02:43.940Z,8.68
2023-02-24T10:05:07.374Z,7.82
2023-02-24T10:07:28.752Z,8.48
2023-02-24T10:09:44.347Z,8.07
2023-02-24T10:11:54.641Z,7.25
2023-02-24T10:14:03.526Z,8.35
2023-02-24T10:16:11.048Z,7.43
2023-02-24T10:18:37.604Z,7.03
2023-02-24T10:20:45.667Z,7.80
2023-02-24T10:22:57.814Z,8.25
2023-02-24T10:25:37.256Z,7.55
2023-02-24T10:28:00.534Z,8.02
2023-02-24T10:30:27.989Z,7.15
2023-02-24T10:32:52.023Z,5.68
2023-02-24T10:34:53.853Z,6.30
2023-02-24T10:36:57.368Z,6.72
2023-02-24T10:39:08.331Z,4.68
2023-02-24T10:41:10.324Z,5.65
2023-02-24T10:43:18.525Z,5.25
2023-02-24T10:45:21.474Z,5.72
2023-02-24T10:47:31.021Z,5.00
2023-02-24T10:51:51.036Z,5.20
2023-02-24T10:56:41.563Z,4.85
2023-02-24T10:58:53.021Z,5.47
2023-02-24T11:01:12.117Z,5.25
2023-02-24T11:03:32.757Z,6.22
2023-02-24T11:05:56.581Z,6.85
2023-02-24T11:08:39.987Z,6.43
2023-02-24T11:10:53.533Z,6.68
2023-02-24T11:13:14.926Z,5.93
2023-02-24T11:15:40.194Z,5.78
2023-02-24T11:17:54.444Z,6.30
2023-02-24T11:20:01.615Z,7.63
2023-02-24T11:22:04.500Z,6.70
2023-02-24T11:24:06.867Z,8.00
2023-02-24T11:26:18.754Z,7.38
2023-02-24T11:28:35.802Z,6.90
2023-02-24T11:30:49.703Z,7.43
2023-02-24T11:33:00.328Z,6.93
2023-02-24T11:35:31.237Z,7.43
2023-02-24T11:37:37.974Z,7.60
2023-02-24T11:40:03.608Z,7.05
2023-02-24T11:42:13.112Z,7.22
2023-02-24T11:44:43.695Z,6.47
2023-02-24T11:46:58.231Z,5.82
2023-02-24T11:49:04.048Z,7.38
2023-02-24T11:51:26.989Z,6.47
2023-02-24T11:54:03.027Z,5.88
2023-02-24T11:56:14.111Z,5.03
2023-02-24T11:58:35.572Z,6.22
2023-02-24T12:00:43.431Z,5.53
2023-02-24T12:02:51.859Z,6.28
2023-02-24T12:05:13.085Z,5.70
2023-02-24T12:07:37.461Z,6.43
2023-02-24T12:09:54.839Z,5.35
2023-02-24T12:12:07.174Z,4.90
2023-02-24T12:14:28.084Z,5.32
2023-02-24T12:16:35.446Z,5.03
2023-02-24T12:18:45.660Z,5.28
2023-02-24T12:20:50.050Z,5.40
2023-02-24T12:22:56.422Z,5.07
2023-02-24T12:24:57.954Z,4.90
2023-02-24T12:27:20.884Z,6.00
2023-02-24T12:29:33.052Z,5.40
2023-02-24T12:31:41.570Z,5.18
2023-02-24T12:36:08.409Z,4.93
2023-02-24T12:38:38.352Z,5.13
2023-02-24T12:41:00.446Z,5.15
2023-02-24T12:43:18.344Z,4.97
2023-02-24T12:45:43.488Z,4.65
2023-02-24T12:48:07.323Z,4.65
2023-02-24T12:50:12.051Z,4.95
2023-02-24T12:52:40.540Z,5.18
2023-02-24T12:54:50.988Z,4.82
2023-02-24T12:57:06.557Z,4.75
2023-02-24T12:59:13.369Z,5.60
2023-02-24T13:01:28.441Z,5.45
2023-02-24T13:03:36.021Z,4.85
2023-02-24T13:05:48.351Z,4.95
2023-02-24T13:08:08.783Z,5.10
2023-02-24T13:10:39.035Z,4.25
2023-02-24T13:12:57.733Z,4.32
2023-02-24T13:14:59.753Z,4.50
2023-02-24T13:17:26.953Z,4.35
2023-02-24T13:19:29.937Z,4.70
2023-02-24T13:21:33.424Z,4.78
2023-02-24T13:23:37.062Z,4.80
2023-02-24T13:25:39.383Z,4.88
2023-02-24T13:27:43.124Z,5.25
2023-02-24T13:29:47.646Z,4.60
2023-02-24T13:31:52.749Z,4.10
2023-02-24T13:33:54.599Z,4.63
2023-02-24T13:36:22.056Z,4.65
2023-02-24T13:38:36.184Z,4.82
2023-02-24T13:40:38.295Z,4.80
2023-02-24T13:42:40.471Z,5.18
2023-02-24T13:45:21.178Z,5.05
2023-02-24T13:47:34.889Z,5.07
2023-02-24T13:49:39.603Z,5.65
2023-02-24T13:52:09.841Z,4.80
2023-02-24T13:54:35.475Z,6.00
2023-02-24T13:56:58.303Z,6.47
2023-02-24T13:59:20.938Z,4.75
2023-02-24T14:01:26.168Z,6.00
2023-02-24T14:03:29.577Z,5.57
2023-02-24T14:05:35.697Z,5.03
2023-02-24T14:07:39.707Z,5.45
2023-02-24T14:09:48.427Z,5.15
2023-02-24T14:12:20.394Z,4.10
2023-02-24T14:14:22.616Z,4.68
2023-02-24T14:16:36.175Z,4.60
2023-02-24T14:18:37.789Z,5.35
2023-02-24T14:20:39.889Z,5.50
2023-02-24T14:22:44.566Z,4.65
2023-02-24T14:24:46.448Z,4.22
2023-02-24T14:26:52.027Z,4.63
2023-02-24T14:28:57.880Z,4.18
2023-02-24T14:31:05.949Z,4.80
2023-02-24T14:33:15.672Z,3.90
2023-02-24T14:35:29.173Z,3.53
2023-02-24T14:37:31.825Z,4.32
2023-02-24T14:41:36.576Z,4.55
2023-02-24T14:43:42.300Z,4.20
2023-02-24T14:45:48.385Z,4.55
2023-02-24T14:47:50.410Z,3.75
2023-02-24T14:50:02.175Z,4.15
2023-02-24T14:52:14.806Z,4.50
2023-02-24T14:54:25.939Z,3.63
2023-02-24T14:56:32.404Z,3.75
2023-02-24T14:58:41.446Z,4.25
2023-02-24T15:00:57.076Z,4.00
2023-02-24T15:03:07.664Z,4.35
2023-02-24T15:05:11.359Z,3.60
2023-02-24T15:07:26.541Z,3.70
2023-02-24T15:09:35.932Z,4.80
2023-02-24T15:11:38.199Z,4.03
2023-02-24T15:13:45.390Z,3.90
2023-02-24T15:15:47.281Z,3.47
2023-02-24T15:17:55.004Z,4.47
2023-02-24T15:19:56.759Z,3.90
2023-02-24T15:21:59.592Z,3.80
2023-02-24T15:24:19.015Z,3.85
2023-02-24T15:26:34.357Z,3.83
2023-02-24T15:28:38.097Z,4.30
2023-02-24T15:30:58.929Z,5.47
2023-02-24T15:35:05.672Z,3.95
2023-02-24T15:37:22.982Z,4.43
2023-02-24T15:39:28.316Z,3.85
2023-02-24T15:41:47.641Z,3.85
2023-02-24T15:43:53.254Z,3.83
2023-02-24T15:45:55.053Z,4.22
2023-02-24T15:48:02.263Z,3.63
2023-02-24T15:50:03.977Z,6.93
2023-02-24T15:52:11.190Z,3.90
2023-02-24T15:54:16.815Z,5.07
2023-02-24T15:56:18.445Z,3.60
2023-02-24T15:58:22.571Z,3.45
2023-02-24T16:00:24.571Z,5.35
2023-02-24T16:02:26.081Z,3.47
2023-02-24T16:04:28.028Z,5.63
2023-02-24T16:06:30.676Z,3.65
2023-02-24T16:08:32.858Z,8.35
2023-02-24T16:10:34.580Z,3.55
2023-02-24T16:12:44.964Z,38.47
2023-02-24T16:14:48.152Z,19.77
2023-02-24T16:16:49.818Z,8.65
2023-02-24T16:18:51.432Z,19.48
2023-02-24T16:20:56.797Z,3.95
2023-02-24T16:23:01.159Z,7.53
2023-02-24T16:25:03.510Z,18.08
2023-02-24T16:27:06.334Z,5.22
2023-02-24T16:31:14.106Z,2.10
2023-02-24T16:33:17.461Z,2.80
2023-02-24T16:35:19.468Z,3.45
2023-02-24T16:37:23.841Z,1.90
2023-02-24T16:39:25.843Z,2.50
2023-02-24T16:41:27.630Z,2.67
2023-02-24T16:43:29.853Z,2.30
2023-02-24T16:45:31.609Z,4.50
2023-02-24T16:47:34.143Z,2.78
2023-02-24T16:49:35.889Z,2.88
2023-02-24T16:51:39.060Z,2.65
2023-02-24T16:53:40.787Z,2.78
2023-02-24T16:55:43.567Z,2.92
2023-02-24T16:57:46.081Z,2.63
2023-02-24T16:59:47.939Z,3.75
2023-02-24T17:01:49.617Z,3.35
2023-02-24T17:03:53.734Z,4.22
2023-02-24T17:05:55.977Z,3.28
2023-02-24T17:07:58.705Z,3.15
2023-02-24T17:10:00.157Z,3.10
2023-02-24T17:12:01.717Z,2.88
2023-02-24T17:14:03.268Z,2.78
2023-02-24T17:16:04.973Z,4.38
2023-02-24T17:18:07.082Z,3.03
2023-02-24T17:20:12.384Z,4.18
2023-02-24T17:22:13.906Z,3.10
2023-02-24T17:24:17.447Z,3.78
2023-02-24T17:26:19.019Z,3.92
2023-02-24T17:28:20.731Z,3.47
2023-02-24T17:30:26.007Z,4.03
2023-02-24T17:32:27.922Z,3.45
2023-02-24T17:34:29.870Z,3.45
2023-02-24T17:36:31.803Z,2.92
2023-02-24T17:38:33.366Z,3.10
2023-02-24T17:40:34.885Z,3.15
2023-02-24T17:42:36.788Z,5.68
2023-02-24T17:44:38.285Z,3.60
2023-02-24T17:46:39.917Z,5.30
2023-02-24T17:48:41.586Z,3.58
2023-02-24T17:50:44.971Z,3.25
2023-02-24T17:52:46.930Z,5.65
2023-02-24T17:54:49.112Z,2.58
2023-02-24T17:56:50.567Z,2.78
2023-02-24T17:58:55.390Z,2.92
2023-02-24T18:00:57.077Z,2.70
2023-02-24T18:02:58.804Z,2.88
2023-02-24T18:05:02.077Z,2.50
2023-02-24T18:07:04.098Z,2.45
2023-02-24T18:09:05.950Z,5.80
2023-02-24T18:11:10.150Z,3.15
2023-02-24T18:13:11.754Z,2.40
2023-02-24T18:15:13.532Z,2.00
2023-02-24T18:17:15.615Z,2.97
2023-02-24T18:19:17.406Z,2.55
2023-02-24T18:21:19.136Z,2.40
2023-02-24T18:23:20.657Z,2.20
2023-02-24T18:25:22.249Z,2.17
2023-02-24T18:27:24.373Z,6.15
2023-02-24T18:29:25.951Z,3.42
2023-02-24T18:31:28.064Z,2.47
2023-02-24T18:33:29.814Z,2.40
2023-02-24T18:35:31.435Z,2.30
2023-02-24T18:37:33.551Z,2.20
2023-02-24T18:39:35.063Z,2.60
2023-02-24T18:41:36.852Z,2.55
2023-02-24T18:43:38.856Z,2.50
2023-02-24T18:45:41.142Z,2.83
2023-02-24T18:47:43.289Z,2.47
2023-02-24T18:49:44.872Z,1.90
2023-02-24T18:51:48.657Z,2.67
2023-02-24T18:53:52.746Z,2.15
2023-02-24T18:56:02.865Z,2.20
2023-02-24T18:58:04.786Z,2.47
2023-02-24T19:00:07.130Z,2.20
2023-02-24T19:02:10.159Z,2.90
2023-02-24T19:04:16.944Z,2.78
2023-02-24T19:06:21.453Z,2.58
2023-02-24T19:08:23.512Z,2.30
2023-02-24T19:10:25.091Z,2.50
2023-02-24T19:12:26.645Z,2.75
2023-02-24T19:14:28.293Z,2.58
2023-02-24T19:16:30.153Z,2.90
2023-02-24T19:18:32.014Z,3.00
2023-02-24T19:20:33.600Z,2.83
2023-02-24T19:22:35.712Z,3.35
2023-02-24T19:24:37.358Z,3.83
2023-02-24T19:26:39.598Z,3.22
2023-02-24T19:28:41.114Z,3.17
2023-02-24T19:30:42.810Z,3.35
2023-02-24T19:32:44.654Z,4.00
2023-02-24T19:34:46.798Z,4.10
2023-02-24T19:36:48.528Z,4.43
2023-02-24T19:38:50.660Z,4.68
2023-02-24T19:40:52.155Z,4.97
2023-02-24T19:42:53.849Z,3.90
2023-02-24T19:44:55.587Z,4.35
2023-02-24T19:46:57.104Z,3.95
2023-02-24T19:48:59.966Z,5.13
2023-02-24T19:51:14.207Z,4.55
2023-02-24T19:53:15.767Z,4.32
2023-02-24T19:55:17.422Z,4.40
2023-02-24T19:57:18.950Z,4.60
2023-02-24T19:59:20.676Z,4.65
2023-02-24T20:01:27.232Z,4.65
2023-02-24T20:03:28.826Z,4.20
2023-02-24T20:05:30.309Z,4.68
2023-02-24T20:07:34.599Z,4.45
2023-02-24T20:09:36.529Z,4.47
2023-02-24T20:11:39.816Z,5.13
2023-02-24T20:13:41.596Z,4.80
2023-02-24T20:15:43.566Z,4.07
2023-02-24T20:17:45.330Z,4.35
2023-02-24T20:19:47.765Z,4.90
2023-02-24T20:21:49.898Z,5.03
2023-02-24T20:23:51.579Z,4.70
2023-02-24T20:25:55.217Z,4.65
2023-02-24T20:27:56.692Z,4.85
2023-02-24T20:29:58.621Z,4.40
2023-02-24T20:32:00.868Z,4.75
2023-02-24T20:34:04.595Z,4.70
2023-02-24T20:36:11.854Z,5.07
2023-02-24T20:38:13.997Z,4.75
2023-02-24T20:40:15.608Z,4.50
2023-02-24T20:42:17.709Z,4.90
2023-02-24T20:44:19.628Z,4.80
2023-02-24T20:46:30.070Z,4.53
2023-02-24T20:48:31.592Z,4.07
2023-02-24T20:50:33.848Z,4.68
2023-02-24T20:52:37.502Z,5.00
2023-02-24T20:54:39.241Z,4.75
2023-02-24T20:56:43.166Z,4.47
2023-02-24T20:58:52.385Z,4.68
2023-02-24T21:00:53.996Z,5.55
2023-02-24T21:02:57.795Z,4.82
2023-02-24T21:04:59.662Z,4.40
2023-02-24T21:07:01.212Z,4.68
2023-02-24T21:09:03.265Z,5.25
2023-02-24T21:11:10.884Z,4.53
2023-02-24T21:13:12.663Z,5.13
2023-02-24T21:15:14.634Z,4.50
2023-02-24T21:17:16.879Z,4.80
2023-02-24T21:19:20.158Z,4.65
2023-02-24T21:21:21.795Z,4.68
2023-02-24T21:23:24.132Z,4.65
2023-02-24T21:25:27.696Z,5.13
2023-02-24T21:27:29.728Z,4.80
2023-02-24T21:29:31.344Z,5.25
2023-02-24T21:31:33.294Z,5.00
2023-02-24T21:33:35.264Z,5.32
2023-02-24T21:35:36.760Z,5.72
2023-02-24T21:37:38.596Z,5.07
2023-02-24T21:39:40.120Z,4.85
2023-02-24T21:41:42.186Z,4.28
2023-02-24T21:43:44.266Z,4.65
2023-02-24T21:45:47.574Z,5.32
2023-02-24T21:47:50.256Z,5.22
2023-02-24T21:49:52.600Z,5.22
2023-02-24T21:51:55.080Z,4.78
2023-02-24T21:53:57.131Z,5.22
2023-02-24T21:56:04.103Z,5.07
2023-02-24T21:58:06.337Z,4.93
2023-02-24T22:00:18.265Z,5.15
2023-02-24T22:02:20.193Z,4.97
2023-02-24T22:04:23.345Z,5.47
2023-02-24T22:06:28.431Z,5.13
2023-02-24T22:08:31.221Z,5.50
2023-02-24T22:10:32.838Z,6.07
2023-02-24T22:12:34.675Z,5.68
2023-02-24T22:14:36.338Z,5.60
2023-02-24T22:16:38.168Z,5.82
2023-02-24T22:18:40.351Z,5.80
2023-02-24T22:20:41.904Z,4.85
2023-02-24T22:22:43.756Z,5.70
2023-02-24T22:24:45.330Z,5.35
2023-02-24T22:26:46.874Z,5.38
2023-02-24T22:28:49.601Z,4.90
2023-02-24T22:30:55.572Z,5.82
2023-02-24T22:32:57.461Z,5.50
2023-02-24T22:34:59.159Z,6.10
2023-02-24T22:37:00.739Z,5.85
2023-02-24T22:39:04.505Z,5.63
2023-02-24T22:41:12.806Z,6.32
2023-02-24T22:43:14.318Z,5.15
2023-02-24T22:45:15.834Z,5.75
2023-02-24T22:47:17.424Z,5.22
2023-02-24T22:49:19.326Z,5.30
2023-02-24T22:51:21.028Z,5.60
2023-02-24T22:53:24.899Z,5.18
2023-02-24T22:55:26.669Z,5.18
2023-02-24T22:57:32.543Z,4.85
2023-02-24T22:59:34.040Z,4.78
2023-02-24T23:01:37.215Z,5.30
2023-02-24T23:03:39.970Z,5.35
2023-02-24T23:05:42.250Z,5.03
2023-02-24T23:07:45.388Z,5.38
2023-02-24T23:09:52.673Z,5.18
2023-02-24T23:11:54.247Z,5.25
2023-02-24T23:13:58.709Z,4.82
2023-02-24T23:16:03.312Z,4.93
2023-02-24T23:18:05.688Z,4.57
2023-02-24T23:20:14.084Z,4.30
2023-02-24T23:22:16.305Z,4.65
2023-02-24T23:24:19.992Z,4.85
2023-02-24T23:26:22.013Z,4.25
2023-02-24T23:28:25.611Z,4.65
2023-02-24T23:30:27.384Z,4.60
2023-02-24T23:32:29.025Z,3.92
2023-02-24T23:34:31.224Z,4.10
2023-02-24T23:36:36.056Z,4.25
2023-02-24T23:38:37.616Z,4.30
2023-02-24T23:40:49.629Z,4.07
2023-02-24T23:42:53.061Z,3.38
2023-02-24T23:44:54.677Z,3.05
2023-02-24T23:46:58.105Z,3.20
2023-02-24T23:49:00.269Z,2.92
2023-02-24T23:51:03.076Z,3.00
2023-02-24T23:53:05.327Z,2.92
2023-02-24T23:55:07.106Z,3.03
2023-02-24T23:57:08.810Z,2.72
2023-02-24T23:59:11.058Z,2.75
